createdAt,value
2022-11-05T00:03:28.969Z,3.17
2022-11-05T00:08:49.340Z,2.95
2022-11-05T00:14:13.636Z,2.35
2022-11-05T00:19:16.689Z,2.67
2022-11-05T00:24:36.687Z,2.50
2022-11-05T00:29:38.137Z,2.20
2022-11-05T00:34:39.653Z,2.22
2022-11-05T00:39:41.188Z,2.05
2022-11-05T00:45:01.239Z,2.03
2022-11-05T00:50:02.833Z,2.42
2022-11-05T00:55:04.615Z,2.30
2022-11-05T01:00:06.694Z,2.22
2022-11-05T01:05:08.834Z,2.30
2022-11-05T01:10:10.396Z,2.53
2022-11-05T01:15:11.940Z,1.77
2022-11-05T01:20:13.685Z,2.03
2022-11-05T01:25:15.233Z,2.40
2022-11-05T01:30:16.836Z,2.20
2022-11-05T01:35:18.869Z,2.42
2022-11-05T01:40:22.942Z,2.75
2022-11-05T01:45:28.865Z,3.10
2022-11-05T01:51:01.387Z,2.50
2022-11-05T01:56:13.961Z,2.70
2022-11-05T02:01:16.229Z,2.60
2022-11-05T02:06:17.768Z,3.10
2022-11-05T02:11:19.983Z,2.60
2022-11-05T02:16:55.195Z,2.75
2022-11-05T02:22:18.370Z,2.50
2022-11-05T02:27:55.198Z,2.78
2022-11-05T02:33:21.723Z,3.05
2022-11-05T02:38:52.438Z,3.22
2022-11-05T02:44:02.993Z,3.08
2022-11-05T02:49:32.996Z,2.90
2022-11-05T02:54:57.600Z,2.60
2022-11-05T03:00:08.637Z,3.13
2022-11-05T03:05:10.112Z,3.40
2022-11-05T03:10:22.733Z,3.40
2022-11-05T03:15:30.436Z,3.85
2022-11-05T03:25:45.466Z,3.03
2022-11-05T03:30:50.318Z,2.85
2022-11-05T03:35:58.704Z,2.58
2022-11-05T03:41:04.889Z,3.60
2022-11-05T03:46:11.997Z,2.88
2022-11-05T03:51:24.513Z,2.80
2022-11-05T03:56:48.315Z,3.17
2022-11-05T04:01:50.104Z,2.83
2022-11-05T04:07:10.357Z,3.15
2022-11-05T04:12:30.148Z,2.78
2022-11-05T04:17:31.652Z,2.90
2022-11-05T04:22:53.421Z,2.40
2022-11-05T04:28:00.301Z,2.90
2022-11-05T04:33:13.765Z,2.67
2022-11-05T04:38:18.002Z,2.80
2022-11-05T04:43:19.944Z,2.55
2022-11-05T04:48:21.585Z,2.25
2022-11-05T04:53:23.053Z,2.38
2022-11-05T04:58:24.503Z,2.05
2022-11-05T05:03:25.968Z,2.00
2022-11-05T05:08:27.442Z,2.30
2022-11-05T05:13:28.897Z,2.17
2022-11-05T05:18:30.357Z,2.53
2022-11-05T05:23:31.852Z,2.55
2022-11-05T05:28:33.393Z,2.80
2022-11-05T05:33:34.909Z,2.70
2022-11-05T05:38:36.414Z,2.42
2022-11-05T05:43:37.880Z,2.60
2022-11-05T05:48:39.439Z,2.83
2022-11-05T05:53:40.924Z,2.80
2022-11-05T05:58:42.435Z,2.50
2022-11-05T06:03:43.895Z,2.90
2022-11-05T06:08:45.549Z,2.75
2022-11-05T06:13:46.996Z,2.10
2022-11-05T06:18:48.452Z,2.83
2022-11-05T06:23:50.117Z,2.15
2022-11-05T06:28:51.583Z,2.40
2022-11-05T06:33:53.175Z,2.67
2022-11-05T06:38:54.655Z,2.97
2022-11-05T06:43:56.112Z,2.65
2022-11-05T06:48:57.585Z,2.75
2022-11-05T06:53:59.038Z,3.33
2022-11-05T06:59:00.711Z,3.15
2022-11-05T07:04:02.150Z,2.50
2022-11-05T07:09:04.100Z,2.60
2022-11-05T07:14:05.588Z,2.88
2022-11-05T07:19:07.065Z,2.45
2022-11-05T07:24:08.947Z,2.58
2022-11-05T07:29:10.406Z,2.88
2022-11-05T07:34:11.960Z,2.70
2022-11-05T07:39:13.449Z,2.70
2022-11-05T07:44:14.898Z,3.08
2022-11-05T07:49:16.612Z,2.50
2022-11-05T07:54:18.116Z,2.97
2022-11-05T07:59:19.595Z,3.08
2022-11-05T08:04:21.135Z,2.90
2022-11-05T08:09:22.617Z,3.33
2022-11-05T08:14:24.061Z,3.10
2022-11-05T08:19:25.621Z,2.50
2022-11-05T08:24:27.084Z,2.90
2022-11-05T08:29:28.552Z,3.40
2022-11-05T08:34:30.022Z,2.95
2022-11-05T08:39:31.529Z,2.60
2022-11-05T08:44:32.974Z,2.60
2022-11-05T08:49:34.425Z,2.42
2022-11-05T08:54:36.105Z,2.35
2022-11-05T08:59:37.641Z,2.60
2022-11-05T09:04:39.084Z,2.70
2022-11-05T09:09:40.650Z,3.15
2022-11-05T09:14:42.148Z,2.90
2022-11-05T09:19:43.689Z,2.78
2022-11-05T09:24:45.120Z,2.45
2022-11-05T09:29:46.722Z,2.50
2022-11-05T09:34:49.022Z,1.70
2022-11-05T09:39:50.499Z,2.08
2022-11-05T09:45:08.260Z,2.17
2022-11-05T09:50:25.635Z,2.30
2022-11-05T09:55:32.409Z,2.03
2022-11-05T10:00:34.162Z,1.80
2022-11-05T10:05:38.119Z,1.77
2022-11-05T10:10:47.181Z,2.58
2022-11-05T10:16:02.577Z,1.73
2022-11-05T10:21:05.150Z,1.63
2022-11-05T10:26:11.754Z,1.90
2022-11-05T10:31:17.016Z,2.05
2022-11-05T10:36:28.656Z,2.30
2022-11-05T10:41:35.387Z,3.15
2022-11-05T10:47:08.215Z,3.17
2022-11-05T10:52:42.058Z,3.10
2022-11-05T10:57:43.619Z,3.47
2022-11-05T11:02:52.471Z,2.92
2022-11-05T11:08:23.567Z,3.30
2022-11-05T11:13:28.340Z,3.72
2022-11-05T11:18:40.048Z,3.22
2022-11-05T11:23:52.922Z,3.33
2022-11-05T11:29:00.560Z,3.65
2022-11-05T11:39:16.710Z,3.38
2022-11-05T11:44:26.891Z,3.35
2022-11-05T11:49:42.059Z,3.22
2022-11-05T11:54:43.700Z,3.25
2022-11-05T12:00:07.925Z,3.10
2022-11-05T12:05:17.457Z,3.35
2022-11-05T12:10:23.552Z,3.60
2022-11-05T12:15:41.313Z,3.50
2022-11-05T12:21:04.718Z,3.42
2022-11-05T12:26:40.453Z,3.63
2022-11-05T12:32:23.786Z,3.00
2022-11-05T12:37:48.465Z,3.08
2022-11-05T12:43:12.179Z,2.53
2022-11-05T12:48:46.183Z,3.00
2022-11-05T12:53:56.994Z,3.10
2022-11-05T12:59:10.646Z,2.85
2022-11-05T13:04:24.912Z,2.72
2022-11-05T13:09:31.005Z,2.45
2022-11-05T13:14:41.364Z,2.60
2022-11-05T13:19:45.468Z,3.10
2022-11-05T13:24:55.394Z,3.13
2022-11-05T13:30:02.643Z,2.50
2022-11-05T13:35:08.477Z,2.20
2022-11-05T13:40:13.257Z,2.10
2022-11-05T13:45:36.900Z,2.10
2022-11-05T13:50:59.877Z,1.98
2022-11-05T13:56:28.956Z,1.80
2022-11-05T14:01:56.886Z,2.28
2022-11-05T14:07:31.500Z,2.20
2022-11-05T14:12:37.624Z,1.63
2022-11-05T14:17:57.884Z,1.80
2022-11-05T14:23:17.605Z,1.80
2022-11-05T14:28:34.258Z,2.30
2022-11-05T14:33:39.743Z,1.90
2022-11-05T14:38:50.490Z,2.13
2022-11-05T14:43:58.553Z,3.13
2022-11-05T14:49:09.070Z,2.85
2022-11-05T14:54:24.465Z,3.00
2022-11-05T14:59:28.068Z,3.60
2022-11-05T15:04:32.458Z,3.58
2022-11-05T15:09:40.595Z,4.10
2022-11-05T15:14:51.153Z,4.28
2022-11-05T15:19:53.750Z,4.28
2022-11-05T15:24:56.007Z,3.50
2022-11-05T15:30:03.695Z,3.75
2022-11-05T15:35:23.399Z,3.45
2022-11-05T15:40:27.900Z,3.75
2022-11-05T15:45:29.400Z,4.00
2022-11-05T15:50:30.869Z,3.85
2022-11-05T15:55:32.932Z,4.15
2022-11-05T16:00:36.733Z,3.85
2022-11-05T16:05:43.829Z,4.50
2022-11-05T16:10:50.673Z,4.20
2022-11-05T16:15:56.761Z,3.70
2022-11-05T16:21:06.109Z,4.25
2022-11-05T16:26:55.824Z,3.95
2022-11-05T16:31:52.588Z,4.88
2022-11-05T16:36:55.834Z,4.22
2022-11-05T16:41:57.643Z,4.50
2022-11-05T16:47:00.268Z,8.02
2022-11-05T16:52:01.941Z,5.65
2022-11-05T16:57:05.737Z,4.93
2022-11-05T17:02:11.055Z,7.03
2022-11-05T17:07:12.607Z,10.25
2022-11-05T17:12:14.585Z,5.45
2022-11-05T17:17:16.041Z,6.70
2022-11-05T17:22:17.501Z,5.13
2022-11-05T17:27:18.963Z,6.03
2022-11-05T17:32:20.477Z,7.07
2022-11-05T17:37:23.019Z,6.28
2022-11-05T17:42:24.529Z,5.45
2022-11-05T17:47:26.826Z,8.00
2022-11-05T17:52:28.794Z,7.80
2022-11-05T17:57:30.278Z,13.95
2022-11-05T18:02:33.971Z,7.75
2022-11-05T18:07:35.672Z,7.80
2022-11-05T18:12:37.990Z,12.38
2022-11-05T18:17:39.697Z,12.13
2022-11-05T18:22:41.637Z,7.20
2022-11-05T18:27:43.104Z,6.93
2022-11-05T18:32:45.396Z,9.25
2022-11-05T18:37:46.885Z,8.43
2022-11-05T18:42:48.408Z,8.60
2022-11-05T18:47:49.860Z,9.77
2022-11-05T18:52:51.345Z,12.13
2022-11-05T18:57:52.799Z,9.07
2022-11-05T19:02:54.615Z,13.15
2022-11-05T19:07:56.435Z,8.05
2022-11-05T19:12:57.985Z,7.93
2022-11-05T19:17:59.459Z,7.25
2022-11-05T19:23:00.931Z,7.90
2022-11-05T19:28:02.903Z,7.57
2022-11-05T19:33:04.608Z,7.43
2022-11-05T19:38:06.058Z,7.45
2022-11-05T19:43:08.822Z,6.50
2022-11-05T19:48:13.561Z,6.50
2022-11-05T19:53:19.669Z,6.60
2022-11-05T19:58:21.152Z,6.13
2022-11-05T20:03:22.646Z,6.53
2022-11-05T20:08:24.130Z,6.13
2022-11-05T20:13:25.673Z,6.07
2022-11-05T20:18:27.757Z,6.82
2022-11-05T20:23:31.174Z,5.90
2022-11-05T20:28:34.003Z,5.40
2022-11-05T20:33:35.514Z,5.68
2022-11-05T20:38:36.984Z,5.20
2022-11-05T20:43:41.044Z,5.60
2022-11-05T20:48:44.671Z,4.60
2022-11-05T20:53:46.734Z,5.28
2022-11-05T20:58:48.777Z,4.97
2022-11-05T21:03:50.514Z,4.82
2022-11-05T21:08:52.706Z,4.78
2022-11-05T21:13:54.751Z,4.18
2022-11-05T21:18:56.277Z,4.57
2022-11-05T21:23:57.745Z,5.00
2022-11-05T21:28:59.197Z,4.88
2022-11-05T21:34:00.672Z,4.40
2022-11-05T21:39:03.065Z,4.80
2022-11-05T21:44:04.956Z,5.05
2022-11-05T21:49:06.566Z,4.78
2022-11-05T21:54:28.812Z,4.88
2022-11-05T21:59:48.850Z,4.53
2022-11-05T22:04:52.742Z,5.05
2022-11-05T22:09:54.739Z,5.00
2022-11-05T22:14:56.301Z,5.05
2022-11-05T22:19:58.460Z,5.07
2022-11-05T22:25:00.058Z,4.82
2022-11-05T22:30:01.585Z,5.10
2022-11-05T22:35:03.315Z,4.80
2022-11-05T22:40:05.204Z,4.50
2022-11-05T22:45:07.053Z,5.15
2022-11-05T22:50:08.891Z,5.20
2022-11-05T22:55:10.503Z,4.70
2022-11-05T23:00:18.397Z,5.07
2022-11-05T23:05:19.853Z,5.15
2022-11-05T23:10:40.026Z,4.85
2022-11-05T23:15:59.866Z,4.80
2022-11-05T23:21:23.007Z,5.00
2022-11-05T23:26:43.156Z,5.30
2022-11-05T23:32:03.652Z,5.18
2022-11-05T23:37:24.364Z,4.85
2022-11-05T23:42:44.168Z,5.55
2022-11-05T23:48:04.357Z,4.82
2022-11-05T23:53:05.889Z,5.15
2022-11-05T23:58:08.253Z,4.93
